createdAt,value
2019-04-06T00:00:19.212Z,14.13
2019-04-06T00:02:45.718Z,11.63
2019-04-06T00:05:12.511Z,11.80
2019-04-06T00:07:38.784Z,13.03
2019-04-06T00:10:05.474Z,12.80
2019-04-06T00:12:31.738Z,13.40
2019-04-06T00:14:58.132Z,14.50
2019-04-06T00:17:24.719Z,11.80
2019-04-06T00:19:51.354Z,13.37
2019-04-06T00:22:17.751Z,15.03
2019-04-06T00:24:44.814Z,18.50
2019-04-06T00:27:11.209Z,14.07
2019-04-06T00:29:37.564Z,13.57
2019-04-06T00:32:08.955Z,14.27
2019-04-06T00:34:35.952Z,14.73
2019-04-06T00:37:02.406Z,15.33
2019-04-06T00:39:28.970Z,14.00
2019-04-06T00:41:55.721Z,14.33
2019-04-06T00:44:22.183Z,14.57
2019-04-06T00:46:48.803Z,15.17
2019-04-06T00:49:16.201Z,17.10
2019-04-06T00:51:42.774Z,16.13
2019-04-06T00:54:09.070Z,16.60
2019-04-06T00:56:35.743Z,13.47
2019-04-06T00:59:02.382Z,16.80
2019-04-06T01:01:28.755Z,16.00
2019-04-06T01:03:55.070Z,14.30
2019-04-06T01:06:21.439Z,12.53
2019-04-06T01:08:47.737Z,16.17
2019-04-06T01:11:14.134Z,16.23
2019-04-06T01:13:40.714Z,14.27
2019-04-06T01:16:07.057Z,15.37
2019-04-06T01:18:33.418Z,15.20
2019-04-06T01:21:00.074Z,15.53
2019-04-06T01:23:26.334Z,17.80
2019-04-06T01:25:52.790Z,13.47
2019-04-06T01:28:19.101Z,15.13
2019-04-06T01:30:45.916Z,15.20
2019-04-06T01:33:13.406Z,13.47
2019-04-06T01:35:40.119Z,13.80
2019-04-06T01:38:06.385Z,16.07
2019-04-06T01:40:32.771Z,15.17
2019-04-06T01:42:59.199Z,14.43
2019-04-06T01:45:25.658Z,13.17
2019-04-06T01:47:52.373Z,17.70
2019-04-06T01:50:18.741Z,16.07
2019-04-06T01:52:45.450Z,15.53
2019-04-06T01:55:11.947Z,15.93
2019-04-06T01:57:38.630Z,15.10
2019-04-06T02:00:10.245Z,15.73
2019-04-06T02:02:38.538Z,15.30
2019-04-06T02:05:05.921Z,14.00
2019-04-06T02:07:32.192Z,16.83
2019-04-06T02:09:58.585Z,17.57
2019-04-06T02:12:24.846Z,16.17
2019-04-06T02:14:51.187Z,14.23
2019-04-06T02:17:17.679Z,15.73
2019-04-06T02:19:44.045Z,14.27
2019-04-06T02:22:10.336Z,17.17
2019-04-06T02:24:36.615Z,14.80
2019-04-06T02:27:03.203Z,14.10
2019-04-06T02:29:29.470Z,15.77
2019-04-06T02:31:57.672Z,14.23
2019-04-06T02:34:42.716Z,14.17
2019-04-06T02:37:19.889Z,15.27
2019-04-06T02:39:48.164Z,15.93
2019-04-06T02:42:25.629Z,14.60
2019-04-06T02:44:52.181Z,14.10
2019-04-06T02:47:18.782Z,13.40
2019-04-06T02:49:45.152Z,15.60
2019-04-06T02:52:11.539Z,16.23
2019-04-06T02:54:37.900Z,15.93
2019-04-06T02:57:04.465Z,15.77
2019-04-06T02:59:30.874Z,16.13
2019-04-06T03:01:57.433Z,15.57
2019-04-06T03:04:24.160Z,15.43
2019-04-06T03:06:50.646Z,15.40
2019-04-06T03:09:17.420Z,16.63
2019-04-06T03:11:44.202Z,13.77
2019-04-06T03:14:10.862Z,14.80
2019-04-06T03:16:37.346Z,13.00
2019-04-06T03:19:04.227Z,14.17
2019-04-06T03:21:30.656Z,16.20
2019-04-06T03:23:57.348Z,15.13
2019-04-06T03:26:23.718Z,15.07
2019-04-06T03:28:50.111Z,15.37
2019-04-06T03:31:22.476Z,15.67
2019-04-06T03:33:45.131Z,14.37
2019-04-06T03:36:11.568Z,12.70
2019-04-06T03:38:38.370Z,12.77
2019-04-06T03:41:04.675Z,15.60
2019-04-06T03:43:31.063Z,13.03
2019-04-06T03:45:57.356Z,13.80
2019-04-06T03:48:23.858Z,14.43
2019-04-06T03:50:50.572Z,14.90
2019-04-06T03:53:16.963Z,15.00
2019-04-06T03:55:43.226Z,15.17
2019-04-06T03:58:09.518Z,14.27
2019-04-06T04:00:35.781Z,16.70
2019-04-06T04:03:02.455Z,13.20
2019-04-06T04:05:29.283Z,15.60
2019-04-06T04:07:55.875Z,15.43
2019-04-06T04:10:28.914Z,14.20
2019-04-06T04:12:55.198Z,16.93
2019-04-06T04:15:21.576Z,14.10
2019-04-06T04:17:48.091Z,17.60
2019-04-06T04:20:14.573Z,15.43
2019-04-06T04:22:41.271Z,11.23
2019-04-06T04:25:07.771Z,13.50
2019-04-06T04:27:34.117Z,14.40
2019-04-06T04:30:00.577Z,15.03
2019-04-06T04:32:26.950Z,13.87
2019-04-06T04:34:53.344Z,16.37
2019-04-06T04:37:19.718Z,15.47
2019-04-06T04:39:46.107Z,15.13
2019-04-06T04:42:12.492Z,15.03
2019-04-06T04:44:38.859Z,16.13
2019-04-06T04:47:05.151Z,14.97
2019-04-06T04:49:31.442Z,15.90
2019-04-06T04:51:57.714Z,14.63
2019-04-06T04:54:24.405Z,15.53
2019-04-06T04:56:50.738Z,14.23
2019-04-06T04:59:17.266Z,15.37
2019-04-06T05:01:43.999Z,13.37
2019-04-06T05:04:10.313Z,16.73
2019-04-06T05:06:36.967Z,16.00
2019-04-06T05:09:05.354Z,15.03
2019-04-06T05:11:31.639Z,15.17
2019-04-06T05:14:35.342Z,16.43
2019-04-06T05:17:01.640Z,16.50
2019-04-06T05:19:28.254Z,15.77
2019-04-06T05:21:54.514Z,15.27
2019-04-06T05:24:21.899Z,15.37
2019-04-06T05:26:48.237Z,15.57
2019-04-06T05:29:14.625Z,15.10
2019-04-06T05:31:41.038Z,12.70
2019-04-06T05:34:07.361Z,15.73
2019-04-06T05:36:33.650Z,12.93
2019-04-06T05:39:00.023Z,15.97
2019-04-06T05:41:26.429Z,13.47
2019-04-06T05:43:52.818Z,12.63
2019-04-06T05:46:19.102Z,15.30
2019-04-06T05:48:45.395Z,17.13
2019-04-06T05:51:11.682Z,14.47
2019-04-06T05:53:37.952Z,14.20
2019-04-06T05:56:04.234Z,16.07
2019-04-06T05:58:30.603Z,16.87
2019-04-06T06:00:57.203Z,18.40
2019-04-06T06:03:23.540Z,20.57
2019-04-06T06:05:50.174Z,20.10
2019-04-06T06:08:16.639Z,14.97
2019-04-06T06:10:44.337Z,17.07
2019-04-06T06:13:11.014Z,16.20
2019-04-06T06:15:37.295Z,18.73
2019-04-06T06:18:03.799Z,15.17
2019-04-06T06:20:30.091Z,17.53
2019-04-06T06:22:56.359Z,17.33
2019-04-06T06:25:22.956Z,15.83
2019-04-06T06:27:49.606Z,17.33
2019-04-06T06:30:16.582Z,17.03
2019-04-06T06:32:43.652Z,18.77
2019-04-06T06:35:11.245Z,17.30
2019-04-06T06:37:37.579Z,16.33
2019-04-06T06:40:05.878Z,16.83
2019-04-06T06:42:32.508Z,19.13
2019-04-06T06:44:58.898Z,16.30
2019-04-06T06:47:25.268Z,15.90
2019-04-06T06:49:52.285Z,17.00
2019-04-06T06:52:18.709Z,16.40
2019-04-06T06:54:46.077Z,18.77
2019-04-06T06:57:12.458Z,18.23
2019-04-06T06:59:38.923Z,15.33
2019-04-06T07:02:05.410Z,18.83
2019-04-06T07:04:31.719Z,19.00
2019-04-06T07:06:58.045Z,17.53
2019-04-06T07:09:24.402Z,19.03
2019-04-06T07:11:50.802Z,17.97
2019-04-06T07:14:17.384Z,21.67
2019-04-06T07:16:43.759Z,20.53
2019-04-06T07:19:10.129Z,19.77
2019-04-06T07:21:36.394Z,17.63
2019-04-06T07:24:03.104Z,20.13
2019-04-06T07:26:29.581Z,18.37
2019-04-06T07:28:55.875Z,18.30
2019-04-06T07:31:22.147Z,18.73
2019-04-06T07:33:48.534Z,17.87
2019-04-06T07:36:14.895Z,18.23
2019-04-06T07:38:41.178Z,17.70
2019-04-06T07:41:07.580Z,18.30
2019-04-06T07:43:34.038Z,19.97
2019-04-06T07:46:00.302Z,19.17
2019-04-06T07:48:26.643Z,20.83
2019-04-06T07:50:53.262Z,20.20
2019-04-06T07:53:20.646Z,21.80
2019-04-06T07:55:47.254Z,19.93
2019-04-06T07:58:14.043Z,24.50
2019-04-06T08:00:40.567Z,21.43
2019-04-06T08:03:07.246Z,20.53
2019-04-06T08:05:34.524Z,21.97
2019-04-06T08:08:01.210Z,26.07
2019-04-06T08:10:27.591Z,28.23
2019-04-06T08:12:53.858Z,30.57
2019-04-06T08:15:20.138Z,33.10
2019-04-06T08:17:46.427Z,30.63
2019-04-06T08:20:13.237Z,32.57
2019-04-06T08:22:39.594Z,33.33
2019-04-06T08:25:06.370Z,32.47
2019-04-06T08:27:32.639Z,27.93
2019-04-06T08:29:59.104Z,28.57
2019-04-06T08:32:25.604Z,28.87
2019-04-06T08:34:51.989Z,30.40
2019-04-06T08:37:18.843Z,29.07
2019-04-06T08:39:45.200Z,26.30
2019-04-06T08:42:11.521Z,27.63
2019-04-06T08:44:37.818Z,27.93
2019-04-06T08:47:04.279Z,26.17
2019-04-06T08:49:30.582Z,28.90
2019-04-06T08:51:56.851Z,27.83
2019-04-06T08:54:23.499Z,30.37
2019-04-06T08:56:49.767Z,30.73
2019-04-06T08:59:16.362Z,30.43
2019-04-06T09:01:42.622Z,25.90
2019-04-06T09:04:09.081Z,29.83
2019-04-06T09:06:35.773Z,23.43
2019-04-06T09:09:04.562Z,28.73
2019-04-06T09:11:31.032Z,26.50
2019-04-06T09:13:57.912Z,24.13
2019-04-06T09:16:24.619Z,26.03
2019-04-06T09:18:51.112Z,24.20
2019-04-06T09:21:17.502Z,24.27
2019-04-06T09:23:45.005Z,27.80
2019-04-06T09:26:11.555Z,26.37
2019-04-06T09:28:37.947Z,25.93
2019-04-06T09:31:04.306Z,27.17
2019-04-06T09:33:30.599Z,24.53
2019-04-06T09:35:57.274Z,26.10
2019-04-06T09:38:23.658Z,26.48
2019-04-06T09:40:50.174Z,24.05
2019-04-06T09:43:17.192Z,25.70
2019-04-06T09:45:45.487Z,24.90
2019-04-06T09:48:22.569Z,25.90
2019-04-06T09:50:51.748Z,25.10
2019-04-06T09:53:36.006Z,23.38
2019-04-06T09:56:22.487Z,22.87
2019-04-06T09:59:07.647Z,24.80
2019-04-06T10:01:52.791Z,23.35
2019-04-06T10:04:33.412Z,22.35
2019-04-06T10:07:02.023Z,21.75
2019-04-06T10:09:45.539Z,25.32
2019-04-06T10:12:16.886Z,21.48
2019-04-06T10:14:48.398Z,23.05
2019-04-06T10:17:39.244Z,22.70
2019-04-06T10:20:12.023Z,21.97
2019-04-06T10:22:52.315Z,22.47
2019-04-06T10:25:32.658Z,23.23
2019-04-06T10:28:16.246Z,22.90
2019-04-06T10:30:56.590Z,20.43
2019-04-06T10:33:26.005Z,20.73
2019-04-06T10:36:06.560Z,22.60
2019-04-06T10:38:41.291Z,23.53
2019-04-06T10:41:09.477Z,20.80
2019-04-06T10:43:37.663Z,21.77
2019-04-06T10:46:24.246Z,20.00
2019-04-06T10:48:52.410Z,19.37
2019-04-06T10:51:40.256Z,20.43
2019-04-06T10:54:14.013Z,20.77
2019-04-06T10:56:45.409Z,20.17
2019-04-06T10:59:19.567Z,21.60
2019-04-06T11:01:50.678Z,21.97
2019-04-06T11:04:28.444Z,20.40
2019-04-06T11:07:05.790Z,23.87
2019-04-06T11:09:40.288Z,21.30
2019-04-06T11:12:27.301Z,22.43
2019-04-06T11:15:04.786Z,20.77
2019-04-06T11:17:33.518Z,20.73
2019-04-06T11:20:04.946Z,23.87
2019-04-06T11:22:33.624Z,20.70
2019-04-06T11:25:18.801Z,23.47
2019-04-06T11:27:59.315Z,20.40
2019-04-06T11:30:27.928Z,22.47
2019-04-06T11:33:12.893Z,20.47
2019-04-06T11:35:59.691Z,19.60
2019-04-06T11:38:27.999Z,20.67
2019-04-06T11:41:02.393Z,21.47
2019-04-06T11:43:36.614Z,21.67
2019-04-06T11:46:22.107Z,20.57
2019-04-06T11:49:03.212Z,22.20
2019-04-06T11:51:37.593Z,20.23
2019-04-06T11:54:06.214Z,21.67
2019-04-06T11:56:50.897Z,22.93
2019-04-06T11:59:19.082Z,22.77
2019-04-06T12:01:47.603Z,22.17
2019-04-06T12:04:18.535Z,24.70
2019-04-06T12:06:47.000Z,22.10
2019-04-06T12:09:21.680Z,24.87
2019-04-06T12:11:52.927Z,23.93
2019-04-06T12:14:21.210Z,23.90
2019-04-06T12:16:49.502Z,22.03
2019-04-06T12:19:23.871Z,22.30
2019-04-06T12:22:08.578Z,22.30
2019-04-06T12:24:53.815Z,21.60
2019-04-06T12:27:31.150Z,21.57
2019-04-06T12:29:59.730Z,21.17
2019-04-06T12:32:30.857Z,21.83
2019-04-06T12:35:05.001Z,21.97
2019-04-06T12:37:33.455Z,23.57
2019-04-06T12:40:04.498Z,24.67
2019-04-06T12:42:33.963Z,23.53
2019-04-06T12:45:18.878Z,24.03
2019-04-06T12:47:50.733Z,20.83
2019-04-06T12:50:19.494Z,21.80
2019-04-06T12:52:56.460Z,18.07
2019-04-06T12:55:24.676Z,18.93
2019-04-06T12:58:08.265Z,18.53
2019-04-06T13:00:50.784Z,17.20
2019-04-06T13:03:13.011Z,19.07
2019-04-06T13:05:41.212Z,18.53
2019-04-06T13:08:12.487Z,18.10
2019-04-06T13:10:40.671Z,18.20
2019-04-06T13:13:24.239Z,16.80
2019-04-06T13:15:52.727Z,17.20
2019-04-06T13:18:33.271Z,17.13
2019-04-06T13:21:02.277Z,17.33
2019-04-06T13:23:37.174Z,16.50
2019-04-06T13:26:22.503Z,15.13
2019-04-06T13:29:03.112Z,16.83
2019-04-06T13:31:44.915Z,15.70
2019-04-06T13:34:13.354Z,15.73
2019-04-06T13:36:41.818Z,16.80
2019-04-06T13:39:10.087Z,15.63
2019-04-06T13:41:55.295Z,13.67
2019-04-06T13:44:35.681Z,13.20
2019-04-06T13:47:04.875Z,16.73
2019-04-06T13:49:38.821Z,13.27
2019-04-06T13:52:07.287Z,14.93
2019-04-06T13:54:45.030Z,14.03
2019-04-06T13:57:19.001Z,13.70
2019-04-06T13:59:59.131Z,15.37
2019-04-06T14:02:40.125Z,12.63
2019-04-06T14:05:27.066Z,15.43
2019-04-06T14:07:55.367Z,13.73
2019-04-06T14:10:23.525Z,13.17
2019-04-06T14:12:58.164Z,14.03
2019-04-06T14:15:29.586Z,14.27
2019-04-06T14:18:14.823Z,14.60
2019-04-06T14:20:43.616Z,14.70
2019-04-06T14:23:12.534Z,15.10
2019-04-06T14:25:57.847Z,12.43
2019-04-06T14:28:35.023Z,14.70
2019-04-06T14:31:28.433Z,15.77
2019-04-06T14:34:08.462Z,13.97
2019-04-06T14:36:42.979Z,13.73
2019-04-06T14:39:11.827Z,14.80
2019-04-06T14:41:48.893Z,14.23
2019-04-06T14:44:20.061Z,12.80
2019-04-06T14:46:57.690Z,13.60
2019-04-06T14:49:35.147Z,13.17
2019-04-06T14:52:20.178Z,12.90
2019-04-06T14:54:54.484Z,12.20
2019-04-06T14:57:22.729Z,13.97
2019-04-06T14:59:51.121Z,12.53
2019-04-06T15:02:19.455Z,14.87
2019-04-06T15:04:53.813Z,15.20
2019-04-06T15:07:34.102Z,14.30
2019-04-06T15:10:02.915Z,13.03
2019-04-06T15:12:48.265Z,14.73
2019-04-06T15:15:22.737Z,13.50
2019-04-06T15:17:51.010Z,12.53
2019-04-06T15:20:24.992Z,14.70
2019-04-06T15:23:02.148Z,15.33
2019-04-06T15:25:43.484Z,15.03
2019-04-06T15:28:19.290Z,15.77
2019-04-06T15:30:50.910Z,13.40
2019-04-06T15:33:22.733Z,13.77
2019-04-06T15:36:08.679Z,14.70
2019-04-06T15:38:44.832Z,13.20
2019-04-06T15:41:36.037Z,12.70
2019-04-06T15:44:07.058Z,13.47
2019-04-06T15:46:38.301Z,15.73
2019-04-06T15:49:17.887Z,13.80
2019-04-06T15:51:54.694Z,15.83
2019-04-06T15:54:44.710Z,16.93
2019-04-06T15:57:24.521Z,14.37
2019-04-06T16:00:05.713Z,13.73
2019-04-06T16:02:46.668Z,13.90
2019-04-06T16:05:31.982Z,12.37
2019-04-06T16:08:09.595Z,13.30
2019-04-06T16:10:56.134Z,15.67
2019-04-06T16:13:24.310Z,13.80
2019-04-06T16:15:58.305Z,14.03
2019-04-06T16:18:32.738Z,15.33
2019-04-06T16:21:01.415Z,19.37
2019-04-06T16:23:29.708Z,13.57
2019-04-06T16:25:58.390Z,13.50
2019-04-06T16:28:29.404Z,13.10
2019-04-06T16:31:14.693Z,12.93
2019-04-06T16:33:46.065Z,13.10
2019-04-06T16:36:30.683Z,11.73
2019-04-06T16:38:59.297Z,12.97
2019-04-06T16:41:33.626Z,13.17
2019-04-06T16:44:04.876Z,12.70
2019-04-06T16:46:51.553Z,12.63
2019-04-06T16:49:22.834Z,13.63
2019-04-06T16:51:52.326Z,14.73
2019-04-06T16:54:38.570Z,13.17
2019-04-06T16:57:08.298Z,11.27
2019-04-06T16:59:39.550Z,11.70
2019-04-06T17:02:21.586Z,13.63
2019-04-06T17:04:40.899Z,14.13
2019-04-06T17:07:09.888Z,11.13
2019-04-06T17:09:55.324Z,9.73
2019-04-06T17:12:29.349Z,11.80
2019-04-06T17:15:15.208Z,9.83
2019-04-06T17:17:58.818Z,8.83
2019-04-06T17:20:30.123Z,9.23
2019-04-06T17:23:10.623Z,12.40
2019-04-06T17:25:51.927Z,8.60
2019-04-06T17:28:36.951Z,9.03
2019-04-06T17:31:05.786Z,9.87
2019-04-06T17:33:34.390Z,7.67
2019-04-06T17:36:02.660Z,8.67
2019-04-06T17:38:31.147Z,8.87
2019-04-06T17:40:59.415Z,8.57
2019-04-06T17:43:46.966Z,10.70
2019-04-06T17:46:17.750Z,10.90
2019-04-06T17:48:48.807Z,9.53
2019-04-06T17:51:17.074Z,12.87
2019-04-06T17:53:45.279Z,10.30
2019-04-06T17:56:30.720Z,10.77
2019-04-06T17:59:02.425Z,15.70
2019-04-06T18:01:34.222Z,14.57
2019-04-06T18:04:02.898Z,17.40
2019-04-06T18:06:37.777Z,15.10
2019-04-06T18:09:24.790Z,15.30
2019-04-06T18:11:56.554Z,17.33
2019-04-06T18:14:23.587Z,12.97
2019-04-06T18:16:50.538Z,13.67
2019-04-06T18:19:16.952Z,9.77
2019-04-06T18:21:43.611Z,9.27
2019-04-06T18:24:10.168Z,7.87
2019-04-06T18:26:36.579Z,10.10
2019-04-06T18:29:03.947Z,8.80
2019-04-06T18:31:33.846Z,9.00
2019-04-06T18:34:00.350Z,8.37
2019-04-06T18:36:40.529Z,9.20
2019-04-06T18:39:14.426Z,8.90
2019-04-06T18:41:40.875Z,8.33
2019-04-06T18:44:07.397Z,8.20
2019-04-06T18:46:33.818Z,9.20
2019-04-06T18:49:00.233Z,8.77
2019-04-06T18:51:26.523Z,8.93
2019-04-06T18:53:53.081Z,9.17
2019-04-06T18:56:20.024Z,8.33
2019-04-06T18:58:46.543Z,10.57
2019-04-06T19:01:13.369Z,11.40
2019-04-06T19:03:40.403Z,10.77
2019-04-06T19:06:07.123Z,10.33
2019-04-06T19:08:33.468Z,8.10
2019-04-06T19:11:00.162Z,16.07
2019-04-06T19:13:26.460Z,17.70
2019-04-06T19:15:53.546Z,18.10
2019-04-06T19:18:20.352Z,15.73
2019-04-06T19:20:47.374Z,13.97
2019-04-06T19:23:14.067Z,17.37
2019-04-06T19:25:40.980Z,15.53
2019-04-06T19:28:08.800Z,13.63
2019-04-06T19:30:36.162Z,15.63
2019-04-06T19:33:03.476Z,17.87
2019-04-06T19:35:30.396Z,22.47
2019-04-06T19:37:56.912Z,13.87
2019-04-06T19:40:23.612Z,10.47
2019-04-06T19:42:50.027Z,11.70
2019-04-06T19:45:16.941Z,11.20
2019-04-06T19:47:43.636Z,9.90
2019-04-06T19:50:10.614Z,10.30
2019-04-06T19:52:37.033Z,10.40
2019-04-06T19:55:05.006Z,9.73
2019-04-06T19:57:31.603Z,9.43
2019-04-06T19:59:58.120Z,9.50
2019-04-06T20:02:24.482Z,11.03
2019-04-06T20:04:50.926Z,10.20
2019-04-06T20:07:17.367Z,13.70
2019-04-06T20:09:44.731Z,12.50
2019-04-06T20:12:11.503Z,11.00
2019-04-06T20:14:38.397Z,10.90
2019-04-06T20:17:05.237Z,12.30
2019-04-06T20:19:31.796Z,13.03
2019-04-06T20:21:58.369Z,21.00
2019-04-06T20:24:25.174Z,25.50
2019-04-06T20:26:52.190Z,24.03
2019-04-06T20:29:18.475Z,18.50
2019-04-06T20:31:44.868Z,15.13
2019-04-06T20:34:11.783Z,10.67
2019-04-06T20:36:38.362Z,14.50
2019-04-06T20:39:07.645Z,28.30
2019-04-06T20:41:34.483Z,28.93
2019-04-06T20:44:00.883Z,24.63
2019-04-06T20:46:27.253Z,18.07
2019-04-06T20:48:53.899Z,14.37
2019-04-06T20:51:20.298Z,12.13
2019-04-06T20:53:46.553Z,22.67
2019-04-06T20:56:12.891Z,24.63
2019-04-06T20:58:40.303Z,23.60
2019-04-06T21:01:06.711Z,18.90
2019-04-06T21:03:33.539Z,16.30
2019-04-06T21:06:00.179Z,12.67
2019-04-06T21:08:26.663Z,11.47
2019-04-06T21:10:53.297Z,9.13
2019-04-06T21:13:20.119Z,9.60
2019-04-06T21:15:46.579Z,9.67
2019-04-06T21:18:12.948Z,10.37
2019-04-06T21:20:39.283Z,10.80
2019-04-06T21:23:06.337Z,11.30
2019-04-06T21:25:33.053Z,12.10
2019-04-06T21:27:59.931Z,12.03
2019-04-06T21:30:27.806Z,10.53
2019-04-06T21:32:54.477Z,11.67
2019-04-06T21:35:21.420Z,9.77
2019-04-06T21:37:47.861Z,10.73
2019-04-06T21:40:14.769Z,11.30
2019-04-06T21:42:42.037Z,9.97
2019-04-06T21:45:10.527Z,12.57
2019-04-06T21:47:37.516Z,12.57
2019-04-06T21:50:07.071Z,10.17
2019-04-06T21:52:34.184Z,10.23
2019-04-06T21:55:00.544Z,10.03
2019-04-06T21:57:27.269Z,9.97
2019-04-06T21:59:55.085Z,10.50
2019-04-06T22:02:21.882Z,9.57
2019-04-06T22:04:48.534Z,8.03
2019-04-06T22:07:16.486Z,11.60
2019-04-06T22:09:43.279Z,10.40
2019-04-06T22:12:10.352Z,8.43
2019-04-06T22:14:36.610Z,9.33
2019-04-06T22:17:03.407Z,10.07
2019-04-06T22:19:30.350Z,12.30
2019-04-06T22:21:56.863Z,13.03
2019-04-06T22:24:24.043Z,12.10
2019-04-06T22:26:50.683Z,12.43
2019-04-06T22:29:17.365Z,15.93
2019-04-06T22:31:43.890Z,16.50
2019-04-06T22:34:10.792Z,12.13
2019-04-06T22:36:37.264Z,12.17
2019-04-06T22:39:05.494Z,11.00
2019-04-06T22:41:32.014Z,13.93
2019-04-06T22:43:58.313Z,12.13
2019-04-06T22:46:25.206Z,15.07
2019-04-06T22:48:51.959Z,12.63
2019-04-06T22:51:19.482Z,10.73
2019-04-06T22:53:46.435Z,11.57
2019-04-06T22:56:13.373Z,12.90
2019-04-06T22:58:39.957Z,12.43
2019-04-06T23:01:08.626Z,10.73
2019-04-06T23:03:43.412Z,10.97
2019-04-06T23:06:18.044Z,12.03
2019-04-06T23:08:44.817Z,9.90
2019-04-06T23:11:11.689Z,11.63
2019-04-06T23:13:38.285Z,12.27
2019-04-06T23:16:04.779Z,12.80
2019-04-06T23:18:31.164Z,11.37
2019-04-06T23:20:57.576Z,12.37
2019-04-06T23:23:23.920Z,10.83
2019-04-06T23:25:50.387Z,12.03
2019-04-06T23:28:16.684Z,9.83
2019-04-06T23:30:43.051Z,10.73
2019-04-06T23:33:09.447Z,11.57
2019-04-06T23:35:35.914Z,11.27
2019-04-06T23:38:02.909Z,12.30
2019-04-06T23:40:29.691Z,12.03
2019-04-06T23:42:56.560Z,12.13
2019-04-06T23:45:23.531Z,10.33
2019-04-06T23:47:51.070Z,11.50
2019-04-06T23:50:17.883Z,12.37
2019-04-06T23:52:44.396Z,10.40
2019-04-06T23:55:11.949Z,8.47
2019-04-06T23:57:38.466Z,10.17
